Heritage Ranch, California
Current Conditions -  °F | °C
As of 3:53 PM on Wednesday 22 Oct 2014 (Local Time) from KPRB Reporting Station
Clear Clear  
Wind Chill: 79°   Ceiling: Unl
Heat Index: 79°   Visibility: 10mi
Dew Point: 38°   Wind: 7mph
Humidity: 23%   Direction: 350°N
Pressure: 29.98"   Gusts: NA
Location:  35.6618°N, 120.707°W
Report Text: KPRB 222253Z AUTO 35006KT 10SM CLR 26/03 A2998 RMK AO2 SLP149 T02610033 TSNO
Loading
Personal Weather Stations






























Interactive Weather Map
Tropical Storm Tracking
New forecast layout! Learn more

10-Day Weather Forecast

Advertisements
Track Severe Weather on mobile